VRE749 DIAP-DFFD
Flight info
| Callsign | VRE749 |
|---|---|
| Flight time | 1h 10m |
| Altitude | 23000 |
| Route | ZANOU G859 AMSAT/N0447F370 UG859 TUMUT TUMUT2P |
| Aircraft | A319/M-SDE3FGHIRWY/LB1 |
Departure
| Time | 2026-04-23 01:13 |
|---|---|
| Airport | Félix-Houphouët-Boigny International Airport (DIAP) |
Arrival
| Time | 2026-04-23 02:24 |
|---|---|
| Airport | Ouagadougou Thomas Sankara International Airport (DFFD) |
| Time | Latitude | Longitude | Altitude | Speed | Heading |
|---|---|---|---|---|---|
| 2026-04-23 00:38 | 5.25650 | -3.93101 | 21 ft | 0 kts | 292° |
| 2026-04-23 01:00 | 5.25646 | -3.93091 | 21 ft | 2 kts | 295° |
| 2026-04-23 01:01 | 5.25639 | -3.93076 | 23 ft | 2 kts | 293° |
| 2026-04-23 01:01 | 5.25629 | -3.93063 | 23 ft | 2 kts | 19° |
| 2026-04-23 01:01 | 5.25616 | -3.93068 | 21 ft | 1 kts | 22° |
| 2026-04-23 01:01 | 5.25613 | -3.93070 | 21 ft | 0 kts | 21° |
| 2026-04-23 01:06 | 5.25621 | -3.93066 | 23 ft | 3 kts | 21° |
| 2026-04-23 01:06 | 5.25647 | -3.93056 | 21 ft | 5 kts | 21° |
| 2026-04-23 01:06 | 5.25687 | -3.93034 | 22 ft | 8 kts | 45° |
| 2026-04-23 01:07 | 5.25694 | -3.92970 | 22 ft | 12 kts | 95° |
| 2026-04-23 01:07 | 5.25765 | -3.92921 | 24 ft | 14 kts | 22° |
| 2026-04-23 01:07 | 5.25854 | -3.92884 | 22 ft | 13 kts | 22° |
| 2026-04-23 01:07 | 5.25935 | -3.92851 | 26 ft | 13 kts | 22° |
| 2026-04-23 01:08 | 5.26018 | -3.92817 | 25 ft | 14 kts | 22° |
| 2026-04-23 01:08 | 5.26114 | -3.92778 | 24 ft | 16 kts | 21° |
| 2026-04-23 01:08 | 5.26224 | -3.92733 | 23 ft | 14 kts | 22° |
| 2026-04-23 01:08 | 5.26234 | -3.92666 | 24 ft | 12 kts | 115° |
| 2026-04-23 01:09 | 5.26260 | -3.92617 | 21 ft | 9 kts | 14° |
| 2026-04-23 01:09 | 5.26321 | -3.92589 | 21 ft | 11 kts | 22° |
| 2026-04-23 01:09 | 5.26401 | -3.92556 | 19 ft | 14 kts | 21° |
| 2026-04-23 01:09 | 5.26495 | -3.92519 | 21 ft | 15 kts | 21° |
| 2026-04-23 01:10 | 5.26594 | -3.92480 | 21 ft | 15 kts | 22° |
| 2026-04-23 01:10 | 5.26692 | -3.92440 | 22 ft | 15 kts | 21° |
| 2026-04-23 01:10 | 5.26788 | -3.92388 | 23 ft | 16 kts | 50° |
| 2026-04-23 01:10 | 5.26830 | -3.92298 | 24 ft | 15 kts | 25° |
| 2026-04-23 01:11 | 5.26922 | -3.92263 | 26 ft | 14 kts | 22° |
| 2026-04-23 01:11 | 5.27016 | -3.92224 | 26 ft | 15 kts | 22° |
| 2026-04-23 01:11 | 5.27120 | -3.92180 | 28 ft | 17 kts | 23° |
| 2026-04-23 01:11 | 5.27233 | -3.92133 | 26 ft | 18 kts | 22° |
| 2026-04-23 01:12 | 5.27347 | -3.92138 | 25 ft | 14 kts | 349° |
| 2026-04-23 01:12 | 5.27352 | -3.92084 | 24 ft | 13 kts | 184° |
| 2026-04-23 01:12 | 5.27285 | -3.92111 | 30 ft | 9 kts | 203° |
| 2026-04-23 01:12 | 5.27220 | -3.92138 | 26 ft | 12 kts | 202° |
| 2026-04-23 01:13 | 5.26994 | -3.92232 | 27 ft | 70 kts | 202° |
| 2026-04-23 01:13 | 5.26324 | -3.92505 | 19 ft | 134 kts | 202° |
| 2026-04-23 01:13 | 5.25356 | -3.92901 | 265 ft | 160 kts | 203° |
| 2026-04-23 01:13 | 5.24305 | -3.93331 | 842 ft | 165 kts | 204° |
| 2026-04-23 01:14 | 5.23233 | -3.93763 | 1507 ft | 166 kts | 203° |
| 2026-04-23 01:14 | 5.22083 | -3.93746 | 2069 ft | 180 kts | 155° |
| 2026-04-23 01:14 | 5.21162 | -3.92777 | 2347 ft | 210 kts | 116° |
| 2026-04-23 01:14 | 5.20928 | -3.91254 | 2659 ft | 238 kts | 83° |
| 2026-04-23 01:15 | 5.21597 | -3.89661 | 3085 ft | 264 kts | 48° |
| 2026-04-23 01:15 | 5.23165 | -3.88685 | 3847 ft | 272 kts | 16° |
| 2026-04-23 01:15 | 5.25020 | -3.88253 | 4557 ft | 274 kts | 14° |
| 2026-04-23 01:15 | 5.26856 | -3.87729 | 5362 ft | 274 kts | 18° |
| 2026-04-23 01:16 | 5.28674 | -3.87155 | 6350 ft | 274 kts | 19° |
| 2026-04-23 01:16 | 5.30496 | -3.86571 | 7241 ft | 276 kts | 19° |
| 2026-04-23 01:16 | 5.32340 | -3.85988 | 8113 ft | 279 kts | 19° |
| 2026-04-23 01:16 | 5.34205 | -3.85408 | 8994 ft | 282 kts | 20° |
| 2026-04-23 01:17 | 5.36093 | -3.84831 | 9862 ft | 285 kts | 20° |
| 2026-04-23 01:17 | 5.38044 | -3.84239 | 10282 ft | 305 kts | 20° |
| 2026-04-23 01:17 | 5.40143 | -3.83604 | 10665 ft | 322 kts | 19° |
| 2026-04-23 01:17 | 5.42282 | -3.82964 | 11304 ft | 329 kts | 19° |
| 2026-04-23 01:18 | 5.44508 | -3.82302 | 12018 ft | 335 kts | 19° |
| 2026-04-23 01:18 | 5.46757 | -3.81637 | 12726 ft | 340 kts | 20° |
| 2026-04-23 01:18 | 5.49042 | -3.80959 | 13424 ft | 345 kts | 20° |
| 2026-04-23 01:18 | 5.51357 | -3.80267 | 14079 ft | 349 kts | 20° |
| 2026-04-23 01:19 | 5.53698 | -3.79565 | 14707 ft | 353 kts | 19° |
| 2026-04-23 01:19 | 5.56065 | -3.78858 | 15338 ft | 357 kts | 19° |
| 2026-04-23 01:19 | 5.58457 | -3.78145 | 15961 ft | 361 kts | 19° |
| 2026-04-23 01:19 | 5.60870 | -3.77425 | 16572 ft | 365 kts | 18° |
| 2026-04-23 01:20 | 5.63324 | -3.76690 | 17195 ft | 369 kts | 18° |
| 2026-04-23 01:20 | 5.65795 | -3.75949 | 17804 ft | 373 kts | 18° |
| 2026-04-23 01:20 | 5.68295 | -3.75202 | 18374 ft | 377 kts | 18° |
| 2026-04-23 01:20 | 5.70814 | -3.74450 | 18899 ft | 380 kts | 18° |
| 2026-04-23 01:21 | 5.73362 | -3.73689 | 19439 ft | 383 kts | 18° |
| 2026-04-23 01:21 | 5.75930 | -3.72923 | 19985 ft | 387 kts | 18° |
| 2026-04-23 01:21 | 5.78521 | -3.72151 | 20522 ft | 390 kts | 18° |
| 2026-04-23 01:21 | 5.81136 | -3.71369 | 21062 ft | 393 kts | 18° |
| 2026-04-23 01:22 | 5.83765 | -3.70581 | 21597 ft | 397 kts | 18° |
| 2026-04-23 01:22 | 5.86421 | -3.69786 | 22121 ft | 400 kts | 18° |
| 2026-04-23 01:22 | 5.89097 | -3.68986 | 22653 ft | 403 kts | 17° |
| 2026-04-23 01:22 | 5.91760 | -3.68190 | 23179 ft | 406 kts | 18° |
| 2026-04-23 01:23 | 5.94518 | -3.67364 | 23651 ft | 410 kts | 17° |
| 2026-04-23 01:23 | 5.97223 | -3.66556 | 24076 ft | 412 kts | 17° |
| 2026-04-23 01:23 | 5.99980 | -3.65733 | 24510 ft | 414 kts | 17° |
| 2026-04-23 01:23 | 6.02749 | -3.64906 | 24947 ft | 416 kts | 17° |
| 2026-04-23 01:24 | 6.05530 | -3.64073 | 25374 ft | 418 kts | 17° |
| 2026-04-23 01:24 | 6.08324 | -3.63235 | 25801 ft | 420 kts | 17° |
| 2026-04-23 01:24 | 6.11135 | -3.62395 | 26221 ft | 422 kts | 17° |
| 2026-04-23 01:24 | 6.13957 | -3.61551 | 26636 ft | 424 kts | 17° |
| 2026-04-23 01:25 | 6.16792 | -3.60701 | 27061 ft | 426 kts | 17° |
| 2026-04-23 01:25 | 6.19640 | -3.59848 | 27471 ft | 428 kts | 17° |
| 2026-04-23 01:25 | 6.22499 | -3.58990 | 27883 ft | 430 kts | 17° |
| 2026-04-23 01:25 | 6.25376 | -3.58126 | 28309 ft | 432 kts | 17° |
| 2026-04-23 01:26 | 6.28268 | -3.57258 | 28713 ft | 435 kts | 17° |
| 2026-04-23 01:26 | 6.31169 | -3.56388 | 29117 ft | 437 kts | 17° |
| 2026-04-23 01:26 | 6.34094 | -3.55514 | 29519 ft | 439 kts | 17° |
| 2026-04-23 01:26 | 6.37023 | -3.54639 | 29903 ft | 441 kts | 17° |
| 2026-04-23 01:27 | 6.39975 | -3.53757 | 30221 ft | 444 kts | 17° |
| 2026-04-23 01:27 | 6.42943 | -3.52871 | 30517 ft | 447 kts | 17° |
| 2026-04-23 01:27 | 6.45937 | -3.51973 | 30791 ft | 450 kts | 17° |
| 2026-04-23 01:27 | 6.48950 | -3.51067 | 31072 ft | 453 kts | 17° |
| 2026-04-23 01:28 | 6.51981 | -3.50154 | 31340 ft | 456 kts | 17° |
| 2026-04-23 01:28 | 6.55032 | -3.49237 | 31649 ft | 458 kts | 18° |
| 2026-04-23 01:28 | 6.58075 | -3.48281 | 32048 ft | 458 kts | 19° |
| 2026-04-23 01:28 | 6.61103 | -3.47276 | 32434 ft | 458 kts | 19° |
| 2026-04-23 01:29 | 6.64111 | -3.46246 | 32812 ft | 459 kts | 20° |
| 2026-04-23 01:29 | 6.67138 | -3.45195 | 33212 ft | 459 kts | 20° |
| 2026-04-23 01:29 | 6.70159 | -3.44150 | 33607 ft | 459 kts | 20° |
| 2026-04-23 01:29 | 6.73189 | -3.43118 | 33988 ft | 460 kts | 20° |
| 2026-04-23 01:30 | 6.76224 | -3.42096 | 34347 ft | 460 kts | 19° |
| 2026-04-23 01:30 | 6.79221 | -3.41091 | 34728 ft | 459 kts | 19° |
| 2026-04-23 01:30 | 6.82288 | -3.40067 | 35104 ft | 458 kts | 19° |
| 2026-04-23 01:30 | 6.85313 | -3.39059 | 35470 ft | 458 kts | 19° |
| 2026-04-23 01:31 | 6.88290 | -3.38063 | 35819 ft | 457 kts | 19° |
| 2026-04-23 01:31 | 6.91305 | -3.37048 | 36170 ft | 456 kts | 19° |
| 2026-04-23 01:31 | 6.94311 | -3.36033 | 36514 ft | 456 kts | 19° |
| 2026-04-23 01:31 | 6.97320 | -3.35017 | 36818 ft | 456 kts | 19° |
| 2026-04-23 01:32 | 7.03315 | -3.32998 | 36915 ft | 452 kts | 19° |
| 2026-04-23 01:32 | 7.09270 | -3.30995 | 36915 ft | 451 kts | 19° |
| 2026-04-23 01:33 | 7.15222 | -3.28990 | 36917 ft | 451 kts | 19° |
| 2026-04-23 01:33 | 7.21164 | -3.26987 | 36914 ft | 451 kts | 19° |
| 2026-04-23 01:34 | 7.27110 | -3.24980 | 36911 ft | 450 kts | 19° |
| 2026-04-23 01:34 | 7.33052 | -3.22968 | 36911 ft | 450 kts | 19° |
| 2026-04-23 01:35 | 7.38992 | -3.20963 | 36908 ft | 450 kts | 19° |
| 2026-04-23 01:35 | 7.44938 | -3.18968 | 36910 ft | 451 kts | 19° |
| 2026-04-23 01:36 | 7.50889 | -3.16969 | 36907 ft | 451 kts | 19° |
| 2026-04-23 01:36 | 7.56798 | -3.14976 | 36904 ft | 451 kts | 19° |
| 2026-04-23 01:37 | 7.62744 | -3.12970 | 36905 ft | 451 kts | 19° |
| 2026-04-23 01:37 | 7.68686 | -3.10953 | 36903 ft | 451 kts | 19° |
| 2026-04-23 01:38 | 7.74626 | -3.08941 | 36901 ft | 450 kts | 19° |
| 2026-04-23 01:38 | 7.80568 | -3.06936 | 36901 ft | 450 kts | 19° |
| 2026-04-23 01:39 | 7.86514 | -3.04931 | 36900 ft | 450 kts | 19° |
| 2026-04-23 01:39 | 7.92451 | -3.02919 | 36900 ft | 450 kts | 19° |
| 2026-04-23 01:40 | 7.98384 | -3.00905 | 36901 ft | 450 kts | 19° |
| 2026-04-23 01:40 | 8.04319 | -2.98897 | 36902 ft | 450 kts | 19° |
| 2026-04-23 01:41 | 8.10255 | -2.96888 | 36896 ft | 450 kts | 19° |
| 2026-04-23 01:41 | 8.16190 | -2.94878 | 36893 ft | 449 kts | 19° |
| 2026-04-23 01:42 | 8.22120 | -2.92873 | 36894 ft | 449 kts | 19° |
| 2026-04-23 01:42 | 8.28011 | -2.90877 | 36893 ft | 449 kts | 19° |
| 2026-04-23 01:43 | 8.33932 | -2.88871 | 36889 ft | 449 kts | 19° |
| 2026-04-23 01:43 | 8.39865 | -2.86859 | 36885 ft | 449 kts | 19° |
| 2026-04-23 01:44 | 8.45786 | -2.84845 | 36883 ft | 449 kts | 19° |
| 2026-04-23 01:44 | 8.51711 | -2.82833 | 36877 ft | 449 kts | 19° |
| 2026-04-23 01:45 | 8.56630 | -2.81165 | 36877 ft | 449 kts | 19° |
| 2026-04-23 01:45 | 8.63518 | -2.78830 | 36871 ft | 449 kts | 19° |
| 2026-04-23 01:46 | 8.69430 | -2.76817 | 36865 ft | 449 kts | 19° |
| 2026-04-23 01:46 | 8.74361 | -2.75140 | 36861 ft | 449 kts | 19° |
| 2026-04-23 01:47 | 8.80272 | -2.73126 | 36861 ft | 448 kts | 19° |
| 2026-04-23 01:47 | 8.86189 | -2.71117 | 36857 ft | 448 kts | 19° |
| 2026-04-23 01:48 | 8.92101 | -2.69112 | 36855 ft | 448 kts | 19° |
| 2026-04-23 01:48 | 8.98008 | -2.67104 | 36851 ft | 448 kts | 19° |
| 2026-04-23 01:49 | 9.03921 | -2.65089 | 36851 ft | 448 kts | 19° |
| 2026-04-23 01:49 | 9.09827 | -2.63068 | 36842 ft | 448 kts | 19° |
| 2026-04-23 01:50 | 9.15735 | -2.61045 | 36836 ft | 449 kts | 19° |
| 2026-04-23 01:50 | 9.21653 | -2.59020 | 36835 ft | 449 kts | 19° |
| 2026-04-23 01:51 | 9.27574 | -2.56992 | 36841 ft | 449 kts | 19° |
| 2026-04-23 01:51 | 9.33502 | -2.54963 | 36837 ft | 450 kts | 19° |
| 2026-04-23 01:52 | 9.39391 | -2.52954 | 36837 ft | 450 kts | 19° |
| 2026-04-23 01:52 | 9.45328 | -2.50930 | 36837 ft | 450 kts | 19° |
| 2026-04-23 01:53 | 9.51267 | -2.48892 | 36843 ft | 451 kts | 19° |
| 2026-04-23 01:53 | 9.57208 | -2.46846 | 36846 ft | 451 kts | 19° |
| 2026-04-23 01:54 | 9.63159 | -2.44804 | 36845 ft | 451 kts | 19° |
| 2026-04-23 01:54 | 9.69115 | -2.42770 | 36843 ft | 452 kts | 19° |
| 2026-04-23 01:55 | 9.75067 | -2.40725 | 36846 ft | 452 kts | 19° |
| 2026-04-23 01:55 | 9.81014 | -2.38673 | 36842 ft | 452 kts | 19° |
| 2026-04-23 01:56 | 9.86981 | -2.36637 | 36841 ft | 452 kts | 19° |
| 2026-04-23 01:56 | 9.92945 | -2.34591 | 36844 ft | 452 kts | 19° |
| 2026-04-23 01:57 | 9.98902 | -2.32532 | 36836 ft | 453 kts | 19° |
| 2026-04-23 01:57 | 10.04833 | -2.30499 | 36836 ft | 453 kts | 19° |
| 2026-04-23 01:58 | 10.10812 | -2.28446 | 36836 ft | 453 kts | 19° |
| 2026-04-23 01:58 | 10.16789 | -2.26391 | 36835 ft | 453 kts | 19° |
| 2026-04-23 01:59 | 10.22769 | -2.24341 | 36837 ft | 454 kts | 19° |
| 2026-04-23 01:59 | 10.28750 | -2.22293 | 36836 ft | 454 kts | 19° |
| 2026-04-23 02:00 | 10.34731 | -2.20246 | 36837 ft | 454 kts | 19° |
| 2026-04-23 02:00 | 10.40723 | -2.18193 | 36817 ft | 455 kts | 19° |
| 2026-04-23 02:01 | 10.46733 | -2.16131 | 36820 ft | 457 kts | 19° |
| 2026-04-23 02:01 | 10.49746 | -2.15096 | 36248 ft | 460 kts | 19° |
| 2026-04-23 02:01 | 10.52828 | -2.14038 | 34980 ft | 473 kts | 18° |
| 2026-04-23 02:02 | 10.55942 | -2.12969 | 34298 ft | 471 kts | 18° |
| 2026-04-23 02:02 | 10.58984 | -2.11923 | 33726 ft | 466 kts | 18° |
| 2026-04-23 02:02 | 10.62033 | -2.10877 | 33128 ft | 459 kts | 18° |
| 2026-04-23 02:02 | 10.65031 | -2.09849 | 32560 ft | 452 kts | 18° |
| 2026-04-23 02:03 | 10.67997 | -2.08833 | 32003 ft | 446 kts | 17° |
| 2026-04-23 02:03 | 10.70914 | -2.07836 | 31468 ft | 439 kts | 17° |
| 2026-04-23 02:03 | 10.73786 | -2.06848 | 30925 ft | 432 kts | 17° |
| 2026-04-23 02:03 | 10.76616 | -2.05872 | 30414 ft | 426 kts | 17° |
| 2026-04-23 02:04 | 10.79400 | -2.04910 | 29902 ft | 420 kts | 17° |
| 2026-04-23 02:04 | 10.82149 | -2.03963 | 29283 ft | 414 kts | 17° |
| 2026-04-23 02:04 | 10.84862 | -2.03033 | 28627 ft | 410 kts | 17° |
| 2026-04-23 02:04 | 10.87559 | -2.02108 | 27963 ft | 407 kts | 17° |
| 2026-04-23 02:05 | 10.90230 | -2.01192 | 27326 ft | 404 kts | 17° |
| 2026-04-23 02:05 | 10.92874 | -2.00287 | 26870 ft | 397 kts | 17° |
| 2026-04-23 02:05 | 10.95472 | -1.99397 | 26428 ft | 391 kts | 17° |
| 2026-04-23 02:05 | 10.98047 | -1.98515 | 25995 ft | 390 kts | 17° |
| 2026-04-23 02:06 | 11.00639 | -1.97690 | 25539 ft | 389 kts | 12° |
| 2026-04-23 02:06 | 11.03277 | -1.97070 | 25084 ft | 389 kts | 12° |
| 2026-04-23 02:06 | 11.05917 | -1.96450 | 24614 ft | 390 kts | 12° |
| 2026-04-23 02:06 | 11.08528 | -1.95836 | 24148 ft | 390 kts | 12° |
| 2026-04-23 02:07 | 11.11174 | -1.95213 | 23665 ft | 391 kts | 12° |
| 2026-04-23 02:07 | 11.13830 | -1.94587 | 23134 ft | 393 kts | 12° |
| 2026-04-23 02:07 | 11.16481 | -1.93965 | 22744 ft | 389 kts | 12° |
| 2026-04-23 02:07 | 11.19118 | -1.93347 | 22260 ft | 388 kts | 12° |
| 2026-04-23 02:08 | 11.21725 | -1.92739 | 21773 ft | 386 kts | 12° |
| 2026-04-23 02:08 | 11.24346 | -1.92125 | 21468 ft | 381 kts | 12° |
| 2026-04-23 02:08 | 11.26920 | -1.91519 | 21060 ft | 378 kts | 12° |
| 2026-04-23 02:08 | 11.29474 | -1.90918 | 20650 ft | 376 kts | 12° |
| 2026-04-23 02:09 | 11.32015 | -1.90320 | 20235 ft | 373 kts | 12° |
| 2026-04-23 02:09 | 11.34533 | -1.89730 | 19813 ft | 370 kts | 12° |
| 2026-04-23 02:09 | 11.37037 | -1.89142 | 19372 ft | 368 kts | 12° |
| 2026-04-23 02:09 | 11.39518 | -1.88559 | 18928 ft | 365 kts | 12° |
| 2026-04-23 02:10 | 11.41984 | -1.87980 | 18497 ft | 362 kts | 12° |
| 2026-04-23 02:10 | 11.44436 | -1.87403 | 18065 ft | 360 kts | 12° |
| 2026-04-23 02:10 | 11.46867 | -1.86829 | 17579 ft | 358 kts | 12° |
| 2026-04-23 02:10 | 11.49285 | -1.86258 | 17111 ft | 355 kts | 12° |
| 2026-04-23 02:11 | 11.51686 | -1.85694 | 16658 ft | 353 kts | 13° |
| 2026-04-23 02:11 | 11.54065 | -1.85138 | 16217 ft | 350 kts | 13° |
| 2026-04-23 02:11 | 11.56433 | -1.84583 | 15792 ft | 348 kts | 13° |
| 2026-04-23 02:11 | 11.58784 | -1.84030 | 15367 ft | 346 kts | 13° |
| 2026-04-23 02:12 | 11.61119 | -1.83477 | 14907 ft | 343 kts | 13° |
| 2026-04-23 02:12 | 11.63434 | -1.82929 | 14487 ft | 340 kts | 14° |
| 2026-04-23 02:12 | 11.65730 | -1.82387 | 14025 ft | 337 kts | 14° |
| 2026-04-23 02:12 | 11.68004 | -1.81853 | 13569 ft | 335 kts | 14° |
| 2026-04-23 02:13 | 11.70265 | -1.81322 | 13136 ft | 331 kts | 14° |
| 2026-04-23 02:13 | 11.72490 | -1.80800 | 12721 ft | 326 kts | 14° |
| 2026-04-23 02:13 | 11.74684 | -1.80286 | 12321 ft | 321 kts | 14° |
| 2026-04-23 02:13 | 11.76819 | -1.79786 | 11937 ft | 317 kts | 15° |
| 2026-04-23 02:14 | 11.78959 | -1.79283 | 11540 ft | 313 kts | 15° |
| 2026-04-23 02:14 | 11.81067 | -1.78785 | 11146 ft | 310 kts | 15° |
| 2026-04-23 02:14 | 11.83162 | -1.78290 | 10746 ft | 307 kts | 15° |
| 2026-04-23 02:14 | 11.85230 | -1.77798 | 10345 ft | 304 kts | 15° |
| 2026-04-23 02:15 | 11.89280 | -1.76842 | 9708 ft | 294 kts | 15° |
| 2026-04-23 02:15 | 11.91264 | -1.76378 | 9280 ft | 292 kts | 15° |
| 2026-04-23 02:15 | 11.93245 | -1.75916 | 8838 ft | 291 kts | 15° |
| 2026-04-23 02:16 | 11.95211 | -1.75461 | 8389 ft | 289 kts | 15° |
| 2026-04-23 02:16 | 11.97171 | -1.75019 | 7924 ft | 287 kts | 15° |
| 2026-04-23 02:16 | 11.99105 | -1.74564 | 7458 ft | 284 kts | 16° |
| 2026-04-23 02:16 | 12.01000 | -1.74052 | 7070 ft | 278 kts | 22° |
| 2026-04-23 02:17 | 12.02692 | -1.73171 | 6664 ft | 270 kts | 36° |
| 2026-04-23 02:17 | 12.04224 | -1.72080 | 6271 ft | 266 kts | 38° |
| 2026-04-23 02:17 | 12.05728 | -1.71008 | 5974 ft | 263 kts | 36° |
| 2026-04-23 02:17 | 12.07273 | -1.69998 | 5547 ft | 265 kts | 34° |
| 2026-04-23 02:18 | 12.08834 | -1.68969 | 5036 ft | 269 kts | 35° |
| 2026-04-23 02:18 | 12.10393 | -1.67922 | 4754 ft | 265 kts | 36° |
| 2026-04-23 02:18 | 12.11916 | -1.66900 | 4486 ft | 260 kts | 35° |
| 2026-04-23 02:18 | 12.13418 | -1.65902 | 4215 ft | 256 kts | 34° |
| 2026-04-23 02:19 | 12.14888 | -1.64934 | 4044 ft | 246 kts | 35° |
| 2026-04-23 02:19 | 12.16287 | -1.63986 | 3923 ft | 237 kts | 36° |
| 2026-04-23 02:19 | 12.17634 | -1.63070 | 3784 ft | 229 kts | 35° |
| 2026-04-23 02:19 | 12.18953 | -1.62197 | 3654 ft | 222 kts | 34° |
| 2026-04-23 02:20 | 12.20232 | -1.61342 | 3523 ft | 216 kts | 36° |
| 2026-04-23 02:20 | 12.21463 | -1.60515 | 3472 ft | 207 kts | 35° |
| 2026-04-23 02:20 | 12.22646 | -1.59725 | 3444 ft | 196 kts | 35° |
| 2026-04-23 02:20 | 12.23731 | -1.58998 | 3369 ft | 178 kts | 35° |
| 2026-04-23 02:21 | 12.24741 | -1.58331 | 3161 ft | 168 kts | 36° |
| 2026-04-23 02:21 | 12.25643 | -1.57711 | 2971 ft | 151 kts | 36° |
| 2026-04-23 02:21 | 12.26493 | -1.57140 | 2712 ft | 141 kts | 37° |
| 2026-04-23 02:21 | 12.27300 | -1.56598 | 2493 ft | 136 kts | 36° |
| 2026-04-23 02:22 | 12.28085 | -1.56084 | 2319 ft | 132 kts | 34° |
| 2026-04-23 02:22 | 12.28855 | -1.55573 | 2239 ft | 132 kts | 36° |
| 2026-04-23 02:22 | 12.29619 | -1.55040 | 2114 ft | 136 kts | 37° |
| 2026-04-23 02:22 | 12.30432 | -1.54504 | 1926 ft | 142 kts | 34° |
| 2026-04-23 02:23 | 12.31265 | -1.53949 | 1725 ft | 143 kts | 33° |
| 2026-04-23 02:23 | 12.32093 | -1.53388 | 1545 ft | 143 kts | 34° |
| 2026-04-23 02:23 | 12.32898 | -1.52841 | 1361 ft | 138 kts | 34° |
| 2026-04-23 02:23 | 12.33714 | -1.52306 | 1176 ft | 140 kts | 33° |
| 2026-04-23 02:24 | 12.34522 | -1.51768 | 1042 ft | 133 kts | 35° |
| 2026-04-23 02:24 | 12.35190 | -1.51319 | 1019 ft | 93 kts | 33° |
| 2026-04-23 02:24 | 12.35587 | -1.51057 | 1011 ft | 43 kts | 33° |
| 2026-04-23 02:24 | 12.35754 | -1.50946 | 1007 ft | 8 kts | 34° |
| 2026-04-23 02:25 | 12.35816 | -1.50903 | 1006 ft | 17 kts | 34° |
| 2026-04-23 02:25 | 12.35939 | -1.50823 | 1002 ft | 25 kts | 31° |
| 2026-04-23 02:25 | 12.36040 | -1.50717 | 998 ft | 15 kts | 347° |
| 2026-04-23 02:25 | 12.36027 | -1.50765 | 999 ft | 11 kts | 207° |
| 2026-04-23 02:26 | 12.35948 | -1.50815 | 1002 ft | 16 kts | 212° |
| 2026-04-23 02:26 | 12.35844 | -1.50884 | 1005 ft | 19 kts | 214° |
| 2026-04-23 02:26 | 12.35731 | -1.50960 | 1007 ft | 20 kts | 212° |
| 2026-04-23 02:26 | 12.35606 | -1.51042 | 1010 ft | 22 kts | 213° |
| 2026-04-23 02:27 | 12.35478 | -1.51127 | 1012 ft | 22 kts | 213° |
| 2026-04-23 02:27 | 12.35391 | -1.51231 | 1014 ft | 20 kts | 279° |
| 2026-04-23 02:27 | 12.35421 | -1.51325 | 1015 ft | 13 kts | 249° |
| 2026-04-23 02:27 | 12.35372 | -1.51392 | 1016 ft | 11 kts | 294° |
| 2026-04-23 02:28 | 12.35397 | -1.51420 | 1016 ft | 2 kts | 301° |
| 2026-04-23 02:28 | 12.35397 | -1.51421 | 1016 ft | 0 kts | 301° |